.
WxDataArchive / Data Records for 2009-12-29
2009-12-28 December 2009 2009-12-30

Data Records for Tuesday, 29 December 2009

Time	Temp	Chill	HIndex	Humid	Dewpt	 Wind 	HiWind	WindDir	Rain 	Barom 
-----	----	-----	------	-----	-----	------	------	-------	-----	----- 
00:00	24.7	24.7	24.7	70	16.3	0	2	338	0.00	30.257 
00:05	24.7	24.7	24.7	71	16.7	0	1	338	0.00	30.257 
00:10	24.7	24.7	24.7	71	16.7	0	1	338	0.00	30.257 
00:15	24.7	24.7	24.7	72	17.0	0	3	315	0.00	30.260 
00:20	24.7	24.7	24.7	72	17.0	0	3	315	0.00	30.260 
00:25	24.7	24.7	24.7	72	17.0	0	2	315	0.00	30.260 
00:30	24.7	24.7	24.7	71	16.7	1	3	248	0.00	30.264 
00:35	24.8	24.8	24.8	71	16.8	0	2	248	0.00	30.264 
00:40	24.8	24.8	24.8	71	16.8	1	2	315	0.00	30.264 
00:45	24.8	24.8	24.8	71	16.8	0	1	315	0.00	30.270 
00:50	24.8	24.8	24.8	71	16.8	0	2	315	0.00	30.270 
00:55	24.8	24.8	24.8	72	17.1	0	2	315	0.00	30.270 
01:00	24.7	24.7	24.7	72	17.0	0	3	315	0.00	30.273 
01:05	24.7	24.7	24.7	72	17.0	0	1	292	0.00	30.273 
01:10	24.7	24.7	24.7	73	17.3	0	1	0	0.00	30.273 
01:15	24.7	24.7	24.7	73	17.3	0	1	0	0.00	30.278 
01:20	24.7	24.7	24.7	73	17.3	0	2	0	0.00	30.278 
01:25	24.7	24.7	24.7	73	17.3	0	3	248	0.00	30.278 
01:30	24.7	24.7	24.7	73	17.3	0	1	248	0.00	30.285 
01:35	24.5	24.5	24.5	74	17.4	0	2	90	0.00	30.285 
01:40	24.5	24.5	24.5	75	17.7	0	2	90	0.00	30.285 
01:45	24.4	24.4	24.4	74	17.3	0	2	338	0.00	30.289 
01:50	24.4	24.4	24.4	75	17.6	0	0	---	0.00	30.289 
01:55	24.4	24.4	24.4	75	17.6	0	1	338	0.00	30.289 
02:00	24.2	24.2	24.2	76	17.7	0	3	270	0.00	30.300 
02:05	24.2	24.2	24.2	76	17.7	0	2	270	0.00	30.300 
02:10	24.1	24.1	24.1	77	18.0	1	3	270	0.00	30.300 
02:15	24.1	24.1	24.1	77	18.0	0	1	315	0.00	30.303 
02:20	23.9	23.9	23.9	76	17.5	1	3	315	0.00	30.303 
02:25	23.9	23.9	23.9	75	17.2	1	4	292	0.00	30.303 
02:30	23.9	23.9	23.9	74	16.8	1	6	292	0.00	30.312 
02:35	23.8	23.8	23.8	74	16.7	1	6	292	0.00	30.312 
02:40	23.8	23.8	23.8	73	16.4	1	4	315	0.00	30.312 
02:45	23.8	23.8	23.8	73	16.4	1	5	0	0.00	30.320 
02:50	23.8	23.8	23.8	73	16.4	0	1	315	0.00	30.320 
02:55	23.6	23.6	23.6	73	16.2	0	3	315	0.00	30.320 
03:00	23.6	23.6	23.6	73	16.2	1	4	270	0.00	30.328 
03:05	23.6	23.6	23.6	73	16.2	0	2	315	0.00	30.328 
03:10	23.6	23.6	23.6	73	16.2	1	2	315	0.00	30.328 
03:15	23.5	23.5	23.5	73	16.1	0	2	270	0.00	30.336 
03:20	23.5	23.5	23.5	73	16.1	0	2	270	0.00	30.336 
03:25	23.5	23.5	23.5	73	16.1	1	2	270	0.00	30.336 
03:30	23.3	23.3	23.3	72	15.6	1	3	338	0.00	30.346 
03:35	23.3	23.3	23.3	71	15.3	1	3	338	0.00	30.346 
03:40	23.0	23.0	23.0	69	14.4	1	5	270	0.00	30.346 
03:45	22.9	22.9	22.9	68	13.9	1	3	270	0.00	30.352 
03:50	22.9	22.9	22.9	67	13.6	1	9	270	0.00	30.352 
03:55	22.7	22.7	22.7	67	13.4	1	4	270	0.00	30.352 
04:00	22.5	22.5	22.5	68	13.6	0	2	270	0.00	30.354 
04:05	22.5	22.5	22.5	68	13.6	1	3	0	0.00	30.354 
04:10	22.5	22.5	22.5	68	13.6	0	1	338	0.00	30.354 
04:15	22.4	22.4	22.4	68	13.5	0	2	0	0.00	30.356 
04:20	22.4	22.4	22.4	68	13.5	0	3	0	0.00	30.356 
04:25	22.4	22.4	22.4	68	13.5	0	1	315	0.00	30.356 
04:30	22.2	22.2	22.2	68	13.3	1	3	270	0.00	30.361 
04:35	22.2	22.2	22.2	69	13.6	0	3	270	0.00	30.361 
04:40	22.2	22.2	22.2	69	13.6	0	2	270	0.00	30.361 
04:45	22.1	22.1	22.1	69	13.5	0	3	270	0.00	30.369 
04:50	22.1	22.1	22.1	70	13.8	0	3	270	0.00	30.369 
04:55	22.1	22.1	22.1	70	13.8	0	2	270	0.00	30.369 
05:00	22.1	22.1	22.1	70	13.8	0	1	315	0.00	30.377 
05:05	22.1	22.1	22.1	70	13.8	0	3	315	0.00	30.377 
05:10	21.9	21.9	21.9	71	14.0	0	2	270	0.00	30.377 
05:15	21.9	21.9	21.9	71	14.0	0	1	270	0.00	30.374 
05:20	21.8	21.8	21.8	71	13.9	0	1	270	0.00	30.374 
05:25	21.8	21.8	21.8	72	14.2	0	1	270	0.00	30.374 
05:30	21.8	21.8	21.8	71	13.9	0	2	270	0.00	30.382 
05:35	21.8	21.8	21.8	72	14.2	0	1	270	0.00	30.382 
05:40	21.8	21.8	21.8	71	13.9	0	2	270	0.00	30.382 
05:45	21.6	21.6	21.6	71	13.7	0	2	270	0.00	30.384 
05:50	21.6	21.6	21.6	71	13.7	0	2	270	0.00	30.384 
05:55	21.6	21.6	21.6	71	13.7	0	2	292	0.00	30.384 
06:00	21.6	21.6	21.6	71	13.7	0	2	292	0.00	30.398 
06:05	21.6	21.6	21.6	71	13.7	0	2	292	0.00	30.398 
06:10	21.4	21.4	21.4	71	13.5	0	1	292	0.00	30.398 
06:15	21.4	21.4	21.4	72	13.8	0	1	292	0.00	30.413 
06:20	21.4	21.4	21.4	72	13.8	0	0	---	0.00	30.413 
06:25	21.4	21.4	21.4	72	13.8	0	3	270	0.00	30.413 
06:30	21.4	21.4	21.4	72	13.8	0	2	270	0.00	30.419 
06:35	21.3	21.3	21.3	73	14.0	0	1	270	0.00	30.419 
06:40	21.3	21.3	21.3	73	14.0	0	2	270	0.00	30.419 
06:45	21.3	21.3	21.3	73	14.0	0	1	270	0.00	30.430 
06:50	21.3	21.3	21.3	73	14.0	0	1	270	0.00	30.430 
06:55	21.3	21.3	21.3	73	14.0	0	1	270	0.00	30.430 
07:00	21.3	21.3	21.3	73	14.0	0	2	270	0.00	30.435 
07:05	21.3	21.3	21.3	73	14.0	0	1	270	0.00	30.435 
07:10	21.3	21.3	21.3	73	14.0	0	0	---	0.00	30.435 
07:15	21.1	21.1	21.1	73	13.8	0	1	270	0.00	30.441 
07:20	21.1	21.1	21.1	73	13.8	0	0	---	0.00	30.441 
07:25	21.1	21.1	21.1	73	13.8	0	0	---	0.00	30.441 
07:30	21.1	21.1	21.1	73	13.8	0	1	270	0.00	30.450 
07:35	21.1	21.1	21.1	73	13.8	0	1	270	0.00	30.450 
07:40	21.1	21.1	21.1	73	13.8	0	1	270	0.00	30.450 
07:45	21.1	21.1	21.1	73	13.8	0	0	---	0.00	30.454 
07:50	21.0	21.0	21.0	73	13.7	0	1	270	0.00	30.454 
07:55	21.0	21.0	21.0	73	13.7	0	1	270	0.00	30.454 
08:00	21.0	21.0	21.0	72	13.4	0	1	270	0.00	30.463 
08:05	20.8	20.8	20.8	71	12.9	0	2	270	0.00	30.463 
08:10	20.8	20.8	20.8	70	12.6	0	2	270	0.00	30.463 
08:15	20.8	20.8	20.8	69	12.3	0	1	270	0.00	30.467 
08:20	20.6	20.6	20.6	69	12.1	0	1	270	0.00	30.467 
08:25	20.6	20.6	20.6	69	12.1	0	0	---	0.00	30.467 
08:30	20.6	20.6	20.6	69	12.1	0	1	270	0.00	30.476 
08:35	20.6	20.6	20.6	69	12.1	0	0	---	0.00	30.476 
08:40	20.6	20.6	20.6	70	12.4	0	0	---	0.00	30.476 
08:45	20.8	20.8	20.8	70	12.6	0	0	---	0.00	30.479 
08:50	20.8	20.8	20.8	70	12.6	0	0	---	0.00	30.479 
08:55	20.8	20.8	20.8	70	12.6	0	1	270	0.00	30.479 
09:00	20.8	20.8	20.8	69	12.3	0	1	270	0.00	30.483 
09:05	21.0	21.0	21.0	68	12.1	0	1	270	0.00	30.483 
09:10	21.0	21.0	21.0	67	11.8	0	2	270	0.00	30.483 
09:15	21.1	21.1	21.1	67	11.9	0	0	---	0.00	30.492 
09:20	21.3	21.3	21.3	66	11.7	0	1	270	0.00	30.492 
09:25	21.3	21.3	21.3	66	11.7	0	1	270	0.00	30.492 
09:30	21.4	21.4	21.4	65	11.5	0	1	270	0.00	30.499 
09:35	21.6	21.6	21.6	64	11.3	0	1	270	0.00	30.499 
09:40	21.8	21.8	21.8	64	11.5	0	1	270	0.00	30.499 
09:45	21.9	21.9	21.9	64	11.6	0	2	270	0.00	30.502 
09:50	22.1	22.1	22.1	63	11.5	0	2	270	0.00	30.502 
09:55	22.1	22.1	22.1	63	11.5	0	1	270	0.00	30.502 
10:00	22.2	22.2	22.2	62	11.2	0	1	270	0.00	30.500 
10:05	22.4	22.4	22.4	62	11.4	0	1	270	0.00	30.500 
10:10	22.5	22.5	22.5	62	11.5	0	2	270	0.00	30.500 
10:15	22.7	22.7	22.7	62	11.7	0	1	270	0.00	30.500 
10:20	22.7	22.7	22.7	61	11.3	0	1	270	0.00	30.500 
10:25	22.9	22.9	22.9	61	11.5	0	1	270	0.00	30.500 
10:30	23.2	23.2	23.2	61	11.8	0	1	270	0.00	30.510 
10:35	23.3	23.3	23.3	60	11.5	0	1	270	0.00	30.510 
10:40	23.5	23.5	23.5	60	11.7	0	2	270	0.00	30.510 
10:45	23.3	23.3	23.3	60	11.5	0	2	270	0.00	30.516 
10:50	23.3	23.3	23.3	60	11.5	0	1	270	0.00	30.516 
10:55	23.6	23.6	23.6	60	11.8	0	2	270	0.00	30.516 
11:00	23.6	23.6	23.6	60	11.8	0	2	270	0.00	30.517 
11:05	23.5	23.5	23.5	59	11.3	1	3	270	0.00	30.517 
11:10	23.6	23.6	23.6	61	12.2	0	1	270	0.00	30.517 
11:15	24.1	24.1	24.1	60	12.3	0	1	270	0.00	30.517 
11:20	24.4	24.4	24.4	58	11.8	0	1	270	0.00	30.517 
11:25	24.4	24.4	24.4	58	11.8	0	2	270	0.00	30.517 
11:30	24.5	24.5	24.5	59	12.3	0	2	270	0.00	30.510 
11:35	24.7	24.7	24.7	58	12.1	1	3	270	0.00	30.510 
11:40	24.7	24.7	24.7	59	12.4	0	2	270	0.00	30.510 
11:45	24.7	24.7	24.7	59	12.4	1	3	270	0.00	30.510 
11:50	25.0	25.0	25.0	59	12.7	0	1	90	0.00	30.510 
11:55	25.3	25.3	25.3	59	13.0	0	2	90	0.00	30.510 
12:00	25.3	25.3	25.3	59	13.0	1	3	90	0.00	30.503 
12:05	25.1	25.1	25.1	59	12.8	1	2	90	0.00	30.503 
12:10	25.1	25.1	25.1	59	12.8	0	2	90	0.00	30.503 
12:15	25.0	25.0	25.0	59	12.7	0	3	68	0.00	30.509 
12:20	25.0	25.0	25.0	59	12.7	0	2	90	0.00	30.509 
12:25	25.0	25.0	25.0	59	12.7	0	2	112	0.00	30.509 
12:30	25.1	25.1	25.1	60	13.2	0	2	112	0.00	30.507 
12:35	25.1	25.1	25.1	58	12.4	1	3	112	0.00	30.507 
12:40	25.1	25.1	25.1	60	13.2	1	2	112	0.00	30.507 
12:45	25.1	25.1	25.1	60	13.2	0	2	112	0.00	30.502 
12:50	25.3	25.3	25.3	59	13.0	0	2	112	0.00	30.502 
12:55	25.3	25.3	25.3	60	13.4	0	2	112	0.00	30.502 
13:00	25.3	25.3	25.3	60	13.4	1	3	112	0.00	30.494 
13:05	25.4	25.4	25.4	60	13.5	1	3	112	0.00	30.494 
13:10	25.6	25.6	25.6	60	13.7	1	3	90	0.00	30.494 
13:15	25.4	25.4	25.4	60	13.5	0	2	90	0.00	30.493 
13:20	25.3	25.3	25.3	61	13.8	1	3	90	0.00	30.493 
13:25	25.3	25.3	25.3	61	13.8	1	3	90	0.00	30.493 
13:30	25.3	25.3	25.3	60	13.4	1	2	90	0.00	30.492 
13:35	25.3	25.3	25.3	61	13.8	1	2	90	0.00	30.492 
13:40	25.3	25.3	25.3	61	13.8	1	4	90	0.00	30.492 
13:45	25.1	25.1	25.1	61	13.6	1	4	68	0.00	30.485 
13:50	25.0	25.0	25.0	61	13.5	1	4	112	0.00	30.485 
13:55	25.0	25.0	25.0	62	13.8	1	3	112	0.00	30.485 
14:00	24.8	24.8	24.8	62	13.7	1	3	112	0.00	30.479 
14:05	24.7	24.7	24.7	62	13.6	1	4	112	0.00	30.479 
14:10	24.5	24.5	24.5	62	13.4	1	4	68	0.00	30.479 
14:15	24.4	24.4	24.4	62	13.3	1	4	68	0.00	30.465 
14:20	24.4	24.4	24.4	63	13.6	1	2	68	0.00	30.465 
14:25	24.5	24.5	24.5	63	13.7	1	2	68	0.00	30.465 
14:30	24.7	24.7	24.7	63	13.9	0	2	68	0.00	30.464 
14:35	24.8	24.8	24.8	63	14.0	0	2	68	0.00	30.464 
14:40	25.0	25.0	25.0	62	13.8	0	2	68	0.00	30.464 
14:45	25.1	25.1	25.1	62	13.9	1	2	68	0.00	30.464 
14:50	25.1	25.1	25.1	62	13.9	1	4	68	0.00	30.464 
14:55	25.1	25.1	25.1	62	13.9	0	3	68	0.00	30.464 
15:00	25.3	25.3	25.3	61	13.8	1	3	68	0.00	30.464 
15:05	25.3	25.3	25.3	62	14.1	1	2	68	0.00	30.464 
15:10	25.3	25.3	25.3	62	14.1	0	1	68	0.00	30.464 
15:15	25.4	25.4	25.4	62	14.2	1	3	68	0.00	30.461 
15:20	25.4	25.4	25.4	62	14.2	1	2	68	0.00	30.461 
15:25	25.4	25.4	25.4	62	14.2	1	4	90	0.00	30.461 
15:30	25.4	25.4	25.4	62	14.2	1	3	90	0.00	30.466 
15:35	25.4	25.4	25.4	62	14.2	1	2	90	0.00	30.466 
15:40	25.4	25.4	25.4	62	14.2	1	2	90	0.00	30.466 
15:45	25.6	25.6	25.6	62	14.4	1	3	90	0.00	30.473 
15:50	25.8	25.8	25.8	61	14.2	1	2	90	0.00	30.473 
15:55	25.8	25.8	25.8	61	14.2	1	2	90	0.00	30.473 
16:00	25.8	25.8	25.8	60	13.9	0	2	90	0.00	30.465 
16:05	26.0	26.0	26.0	59	13.7	0	1	90	0.00	30.465 
16:10	26.0	26.0	26.0	60	14.0	0	1	90	0.00	30.465 
16:15	26.0	26.0	26.0	60	14.0	0	1	90	0.00	30.463 
16:20	26.0	26.0	26.0	60	14.0	0	0	---	0.00	30.463 
16:25	26.0	26.0	26.0	59	13.7	0	1	90	0.00	30.463 
16:30	26.1	26.1	26.1	58	13.4	0	1	90	0.00	30.463 
16:35	26.1	26.1	26.1	59	13.8	0	1	90	0.00	30.463 
16:40	26.0	26.0	26.0	61	14.4	0	0	---	0.00	30.463 
16:45	25.7	25.7	25.7	62	14.5	0	1	90	0.00	30.464 
16:50	25.4	25.4	25.4	62	14.2	0	0	---	0.00	30.464 
16:55	25.1	25.1	25.1	63	14.3	0	0	---	0.00	30.464 
17:00	24.8	24.8	24.8	64	14.4	0	1	90	0.00	30.454 
17:05	24.5	24.5	24.5	65	14.4	0	1	90	0.00	30.454 
17:10	24.1	24.1	24.1	65	14.1	0	0	---	0.00	30.454 
17:15	23.6	23.6	23.6	65	13.6	0	0	---	0.00	30.453 
17:20	23.3	23.3	23.3	66	13.6	0	0	---	0.00	30.453 
17:25	23.0	23.0	23.0	67	13.7	0	0	---	0.00	30.453 
17:30	22.5	22.5	22.5	69	13.9	0	0	---	0.00	30.459 
17:35	22.1	22.1	22.1	69	13.5	0	0	---	0.00	30.459 
17:40	21.6	21.6	21.6	70	13.4	0	0	---	0.00	30.459 
17:45	21.3	21.3	21.3	70	13.1	0	0	---	0.00	30.465 
17:50	20.8	20.8	20.8	71	12.9	0	0	---	0.00	30.465 
17:55	20.5	20.5	20.5	74	13.6	0	0	---	0.00	30.465 
18:00	20.3	20.3	20.3	75	13.7	0	0	---	0.00	30.462 
18:05	19.9	19.9	19.9	75	13.3	0	0	---	0.00	30.462 
18:10	19.7	19.7	19.7	76	13.4	0	0	---	0.00	30.462 
18:15	19.4	19.4	19.4	76	13.1	0	0	---	0.00	30.472 
18:20	19.2	19.2	19.2	77	13.2	0	0	---	0.00	30.472 
18:25	18.9	18.9	18.9	78	13.2	0	0	---	0.00	30.472 
18:30	18.8	18.8	18.8	78	13.1	0	0	---	0.00	30.473 
18:35	18.4	18.4	18.4	78	12.7	0	0	---	0.00	30.473 
18:40	18.1	18.1	18.1	79	12.7	0	0	---	0.00	30.473 
18:45	17.8	17.8	17.8	79	12.4	0	0	---	0.00	30.478 
18:50	17.7	17.7	17.7	80	12.6	0	0	---	0.00	30.478 
18:55	17.5	17.5	17.5	81	12.7	0	0	---	0.00	30.478 
19:00	17.3	17.3	17.3	81	12.5	0	0	---	0.00	30.480 
19:05	17.3	17.3	17.3	82	12.8	0	0	---	0.00	30.480 
19:10	17.2	17.2	17.2	82	12.7	0	0	---	0.00	30.480 
19:15	17.0	17.0	17.0	83	12.7	0	0	---	0.00	30.480 
19:20	17.2	17.2	17.2	83	12.9	0	0	---	0.00	30.480 
19:25	17.2	17.2	17.2	84	13.2	0	0	---	0.00	30.480 
19:30	17.2	17.2	17.2	84	13.2	0	0	---	0.00	30.478 
19:35	17.0	17.0	17.0	84	13.0	0	0	---	0.00	30.478 
19:40	17.0	17.0	17.0	84	13.0	0	0	---	0.00	30.478 
19:45	16.9	16.9	16.9	84	12.9	0	0	---	0.00	30.474 
19:50	16.9	16.9	16.9	84	12.9	0	0	---	0.00	30.474 
19:55	16.7	16.7	16.7	84	12.7	0	0	---	0.00	30.474 
20:00	16.5	16.5	16.5	84	12.5	0	0	---	0.00	30.471 
20:05	16.4	16.4	16.4	84	12.4	0	0	---	0.00	30.471 
20:10	16.1	16.1	16.1	84	12.1	0	0	---	0.00	30.471 
20:15	15.9	15.9	15.9	84	11.9	0	0	---	0.00	30.476 
20:20	15.9	15.9	15.9	85	12.2	0	0	---	0.00	30.476 
20:25	15.9	15.9	15.9	85	12.2	0	0	---	0.00	30.476 
20:30	15.9	15.9	15.9	85	12.2	0	0	---	0.00	30.475 
20:35	15.7	15.7	15.7	85	12.0	0	0	---	0.00	30.475 
20:40	15.4	15.4	15.4	85	11.7	0	0	---	0.00	30.475 
20:45	15.2	15.2	15.2	85	11.5	0	0	---	0.00	30.474 
20:50	14.9	14.9	14.9	85	11.2	0	0	---	0.00	30.474 
20:55	14.8	14.8	14.8	85	11.1	0	0	---	0.00	30.474 
21:00	14.6	14.6	14.6	85	10.9	0	0	---	0.00	30.471 
21:05	14.4	14.4	14.4	85	10.7	0	0	---	0.00	30.471 
21:10	14.3	14.3	14.3	85	10.6	0	0	---	0.00	30.471 
21:15	14.1	14.1	14.1	85	10.4	0	0	---	0.00	30.468 
21:20	14.0	14.0	14.0	85	10.3	0	0	---	0.00	30.468 
21:25	13.8	13.8	13.8	86	10.4	0	0	---	0.00	30.468 
21:30	13.6	13.6	13.6	86	10.2	0	0	---	0.00	30.470 
21:35	13.5	13.5	13.5	86	10.1	0	0	---	0.00	30.470 
21:40	13.3	13.3	13.3	86	9.9	0	0	---	0.00	30.470 
21:45	13.5	13.5	13.5	87	10.4	0	0	---	0.00	30.472 
21:50	13.8	13.8	13.8	87	10.7	0	0	---	0.00	30.472 
21:55	14.1	14.1	14.1	87	11.0	0	0	---	0.00	30.472 
22:00	14.4	14.4	14.4	87	11.3	0	0	---	0.00	30.475 
22:05	14.8	14.8	14.8	88	11.9	0	0	---	0.00	30.475 
22:10	15.1	15.1	15.1	88	12.2	0	0	---	0.00	30.475 
22:15	15.1	15.1	15.1	88	12.2	0	0	---	0.00	30.471 
22:20	15.2	15.2	15.2	88	12.3	0	0	---	0.00	30.471 
22:25	15.2	15.2	15.2	88	12.3	0	0	---	0.00	30.471 
22:30	15.2	15.2	15.2	88	12.3	0	0	---	0.00	30.470 
22:35	15.4	15.4	15.4	88	12.5	0	0	---	0.00	30.470 
22:40	15.4	15.4	15.4	87	12.2	0	0	---	0.00	30.470 
22:45	15.2	15.2	15.2	87	12.0	0	0	---	0.00	30.458 
22:50	15.1	15.1	15.1	87	11.9	0	0	---	0.00	30.458 
22:55	14.8	14.8	14.8	86	11.4	0	0	---	0.00	30.458 
23:00	14.6	14.6	14.6	86	11.2	0	0	---	0.00	30.458 
23:05	14.3	14.3	14.3	86	10.9	0	0	---	0.00	30.458 
23:10	14.0	14.0	14.0	86	10.6	0	0	---	0.00	30.458 
23:15	13.8	13.8	13.8	86	10.4	0	0	---	0.00	30.461 
23:20	13.6	13.6	13.6	86	10.2	0	0	---	0.00	30.461 
23:25	13.6	13.6	13.6	87	10.5	0	0	---	0.00	30.461 
23:30	13.5	13.5	13.5	87	10.4	0	0	---	0.00	30.460 
23:35	13.5	13.5	13.5	87	10.4	0	0	---	0.00	30.460 
23:40	13.5	13.5	13.5	87	10.4	0	0	---	0.00	30.460 
23:45	13.6	13.6	13.6	87	10.5	0	0	---	0.00	30.451 
23:50	13.5	13.5	13.5	87	10.4	0	0	---	0.00	30.451 
23:55	13.5	13.5	13.5	87	10.4	0	0	---	0.00	30.451 

CoCoRaHS
IN-AL-39
A2 Web Hosting
Creative Commons License
GoDaddy
search engine by freefind advanced

loaded 2018-11-20 06:14:55 • last modified 2010-11-18 10:43:29
Privacy PolicyDisclaimer
• wx.awcolley.com is powered by PmWiki v.2002016 •
• all content (unless otherwise noted) © 2018 A W Colley